• Join FlightAware (Why Join?)
  • Login
  • US Flag 
10:10AM EDT


 

Airport Tracker/Info


-or-


 

Live Flight TrackerFlight Track Log ✈ N1129K ✈ 03-May-2012 ✈ KPOC - KSNA

Flight Track Log - Related Links

Times and Time Zones

All times are in EDT time to prevent confusion due to time zone crossing. See the N1129K flight status page for this flight to view local times or setup timezone preferences in your user account.

Time Position Orientation Groundspeed Altitude Reporting Facility
EDT Latitude Longitude Course Direction KTS MPH feet Rate Location/Type
12:34PM 34.0554 -117.7891 173° South  Level FlightAware Approximate
12:35PM 34.0167 -117.7833 180° South 97 112 3,000  Level Southern California TRACON
12:36PM 34.0000 -117.7833 180° South 99 114 3,000 240 Level Southern California TRACON
12:37PM 33.9667 -117.7833 180° South 91 105 3,500 480 Climbing Southern California TRACON
12:38PM 33.9500 -117.7833 203° Southwest 100 115 4,000 240 Climbing Southern California TRACON
12:39PM 33.9167 -117.8000 220° Southwest 106 122 4,000  Level Southern California TRACON
12:40PM 33.9000 -117.8167 239° Southwest 106 122 4,000  Level Southern California TRACON
12:41PM 33.8833 -117.8500 239° Southwest 104 120 4,000  Level Southern California TRACON
12:42PM 33.8667 -117.8833 220° Southwest 107 123 4,000  Level Southern California TRACON
12:43PM 33.8500 -117.9000 203° Southwest 109 125 4,000  Level Southern California TRACON
12:44PM 33.8167 -117.9167 157° South 109 125 4,000  Level Southern California TRACON
12:45PM 33.7833 -117.9000 40° Northeast 109 125 4,000  Level Southern California TRACON
12:46PM 33.8000 -117.8833 40° Northeast 107 123 4,000  Level Southern California TRACON
12:47PM 33.8167 -117.8667 40° Northeast 104 120 4,000  Level Southern California TRACON
12:48PM 33.8500 -117.8333 40° Northeast 107 123 4,000  Level Southern California TRACON
12:49PM 33.8667 -117.8167 40° Northeast 107 123 4,000 -60 Level Southern California TRACON
12:50PM 33.8833 -117.8000 157° South 119 137 3,900 -480 Descending Southern California TRACON
12:51PM 33.8500 -117.7833 180° South 112 129 3,100 -780 Descending Southern California TRACON
12:52PM 33.8167 -117.7833 180° South 108 124 2,500 -480 Descending Southern California TRACON
12:53PM 33.8000 -117.7833 220° Southwest 106 122 2,300 -240 Descending Southern California TRACON
12:54PM 33.7667 -117.8167 180° South 112 129 2,100 -360 Descending Southern California TRACON
12:55PM 33.7500 -117.8167 220° Southwest 112 129 1,600 -600 Descending Southern California TRACON
12:56PM 33.7167 -117.8500 180° South 116 133 1,000 -600 Descending Southern California TRACON
12:57PM 33.7000 -117.8500 180° South 103 119 400 -600 Descending Southern California TRACON